Terminal Aerodrome Forecast
Issued by NWS Duluth, MN

Home | Current Version | Previous Version | Text Only | Print | Product List | Glossary On
Versions: 1 2 3 4 5 6 7 8 9 10 11 12 13 14 15 16 17 18 19
520
FTUS43 KDLH 230701 AAA
TAFINL
TAF AMD
KINL 230701Z 2307/2406 03007KT P6SM FEW035 OVC110
      TEMPO 2307/2308 2SM -SHSN OVC008
     FM230800 36009KT P6SM VCSH OVC035
     FM231000 35009KT P6SM BKN040 BKN100
     FM232100 05006KT P6SM BKN060=

USA.gov is the U.S. government's official web portal to all federal, state and local government web resources and services.